Normalwerte entsprechend der Tabelle des DWD von 1961-1990 fr den Standort Annaberg-Buchholz, 650m ASL
Wetterdaten: aktuell Samstag, 20.04.2019 11:00
Datum Zeit Temp. A. Feuchte A. Luftdruck Regen Wind Richtung Richtung Taupunkt Windchill Windben
20.04.2019 11:00 18,9 C 33 % 1030,1 hPa 0,0 l/m 5,8 km/h (2 Bft) N-NO 24 2,3 C 18,9 C 14,5 km/h (3 Bft)
20.04.2019 10:55 18,5 C 35 % 1030,1 hPa 0,0 l/m 7,7 km/h (2 Bft) N-NW 335 2,8 C 17,9 C 16,1 km/h (3 Bft)
20.04.2019 10:50 18,3 C 33 % 1030,2 hPa 0,0 l/m 8,1 km/h (2 Bft) N 355 1,8 C 17,5 C 16,1 km/h (3 Bft)
20.04.2019 10:45 18,1 C 34 % 1030,1 hPa 0,0 l/m 10,9 km/h (2 Bft) N-NW 347 2,0 C 16,2 C 19,3 km/h (3 Bft)
20.04.2019 10:40 18,1 C 35 % 1030,2 hPa 0,0 l/m 8,5 km/h (2 Bft) N-NW 338 2,4 C 17,1 C 16,1 km/h (3 Bft)
20.04.2019 10:35 17,9 C 33 % 1030,3 hPa 0,0 l/m 9,0 km/h (2 Bft) NO 35 1,4 C 16,7 C 20,9 km/h (4 Bft)
20.04.2019 10:30 18,0 C 33 % 1030,3 hPa 0,0 l/m 7,1 km/h (2 Bft) NW 312 1,5 C 17,7 C 12,9 km/h (3 Bft)
20.04.2019 10:25 18,1 C 35 % 1030,3 hPa 0,0 l/m 8,0 km/h (2 Bft) N-NO 15 2,4 C 17,4 C 17,7 km/h (3 Bft)
20.04.2019 10:20 17,9 C 35 % 1030,3 hPa 0,0 l/m 6,2 km/h (2 Bft) N-NO 19 2,2 C 17,9 C 14,5 km/h (3 Bft)
20.04.2019 10:15 17,8 C 35 % 1030,4 hPa 0,0 l/m 7,4 km/h (2 Bft) N-NO 16 2,1 C 17,3 C 16,1 km/h (3 Bft)
20.04.2019 10:10 17,7 C 34 % 1030,3 hPa 0,0 l/m 9,6 km/h (2 Bft) O-NO 70 1,6 C 16,3 C 16,1 km/h (3 Bft)
20.04.2019 10:05 17,6 C 34 % 1030,3 hPa 0,0 l/m 8,6 km/h (2 Bft) O-NO 68 1,6 C 16,6 C 14,5 km/h (3 Bft)
20.04.2019 10:00 17,7 C 36 % 1030,3 hPa 0,0 l/m 4,0 km/h (1 Bft) O 82 2,4 C 17,7 C 12,9 km/h (3 Bft)
20.04.2019 09:55 17,6 C 35 % 1030,3 hPa 0,0 l/m 4,8 km/h (1 Bft) O-NO 78 2,0 C 17,6 C 9,7 km/h (2 Bft)
20.04.2019 09:50 17,8 C 35 % 1030,3 hPa 0,0 l/m 4,9 km/h (1 Bft) O 91 2,1 C 17,8 C 11,3 km/h (2 Bft)
20.04.2019 09:45 17,7 C 37 % 1030,2 hPa 0,0 l/m 0,0 km/h (0 Bft) NO 35 2,8 C 17,7 C 1,6 km/h (1 Bft)
20.04.2019 09:40 17,3 C 38 % 1030,3 hPa 0,0 l/m 0,2 km/h (0 Bft) N-NO 33 2,9 C 17,3 C 3,2 km/h (1 Bft)
20.04.2019 09:35 17,2 C 39 % 1030,3 hPa 0,0 l/m 2,5 km/h (1 Bft) N-NO 33 3,1 C 17,2 C 6,4 km/h (2 Bft)
20.04.2019 09:30 17,0 C 39 % 1030,2 hPa 0,0 l/m 2,0 km/h (1 Bft) NO 49 2,9 C 17,0 C 4,8 km/h (1 Bft)
20.04.2019 09:25 16,8 C 40 % 1030,3 hPa 0,0 l/m 3,0 km/h (1 Bft) NO 53 3,1 C 16,8 C 6,4 km/h (2 Bft)
20.04.2019 09:20 16,4 C 43 % 1030,3 hPa 0,0 l/m 3,0 km/h (1 Bft) NO 41 3,8 C 16,4 C 6,4 km/h (2 Bft)
20.04.2019 09:15 15,7 C 44 % 1030,4 hPa 0,0 l/m 0,0 km/h (0 Bft) W-NW 294 3,5 C 15,7 C 0,0 km/h (0 Bft)
20.04.2019 09:10 15,4 C 44 % 1030,3 hPa 0,0 l/m 0,0 km/h (0 Bft) W 276 3,2 C 15,4 C 0,0 km/h (0 Bft)
20.04.2019 09:05 15,2 C 45 % 1030,4 hPa 0,0 l/m 1,1 km/h (1 Bft) W 276 3,4 C 15,2 C 3,2 km/h (1 Bft)
20.04.2019 09:00 14,9 C 46 % 1030,4 hPa 0,0 l/m 1,8 km/h (1 Bft) W 276 3,4 C 14,9 C 4,8 km/h (1 Bft)
20.04.2019 08:55 14,7 C 47 % 1030,4 hPa 0,0 l/m 2,9 km/h (1 Bft) W 275 3,5 C 14,7 C 4,8 km/h (1 Bft)
20.04.2019 08:50 14,6 C 48 % 1030,3 hPa 0,0 l/m 0,0 km/h (0 Bft) S 169 3,7 C 14,6 C 0,0 km/h (0 Bft)
20.04.2019 08:45 14,5 C 48 % 1030,3 hPa 0,0 l/m 0,0 km/h (0 Bft) S 169 3,6 C 14,5 C 0,0 km/h (0 Bft)
20.04.2019 08:40 14,1 C 51 % 1030,3 hPa 0,0 l/m 0,0 km/h (0 Bft) S-SO 168 4,1 C 14,1 C 0,0 km/h (0 Bft)
20.04.2019 08:36 13,7 C 56 % 1030,2 hPa 0,0 l/m 0,0 km/h (0 Bft) S 169 5,1 C 13,7 C 0,0 km/h (0 Bft)
20.04.2019 08:30 12,8 C 58 % 1030,2 hPa 0,0 l/m 0,6 km/h (0 Bft) S 169 4,7 C 12,8 C 3,2 km/h (1 Bft)
20.04.2019 08:25 12,2 C 60 % 1030,3 hPa 0,0 l/m 1,0 km/h (0 Bft) S 170 4,7 C 12,2 C 3,2 km/h (1 Bft)
20.04.2019 08:20 11,2 C 63 % 1030,3 hPa 0,0 l/m 0,0 km/h (0 Bft) S 170 4,4 C 11,2 C 1,6 km/h (1 Bft)
20.04.2019 08:15 10,4 C 66 % 1030,2 hPa 0,0 l/m 0,0 km/h (0 Bft) S 170 4,3 C 10,4 C 0,0 km/h (0 Bft)
20.04.2019 08:10 9,7 C 67 % 1030,3 hPa 0,0 l/m 0,0 km/h (0 Bft) S 170 3,9 C 9,7 C 0,0 km/h (0 Bft)
20.04.2019 08:05 9,1 C 67 % 1030,2 hPa 0,0 l/m 0,0 km/h (0 Bft) S 170 3,3 C 9,1 C 0,0 km/h (0 Bft)
20.04.2019 08:00 8,8 C 67 % 1030,2 hPa 0,0 l/m 0,8 km/h (0 Bft) S 170 3,0 C 8,8 C 3,2 km/h (1 Bft)
20.04.2019 07:55 8,7 C 69 % 1030,3 hPa 0,0 l/m 0,0 km/h (0 Bft) S 170 3,3 C 8,7 C 0,0 km/h (0 Bft)
20.04.2019 07:50 8,4 C 69 % 1030,3 hPa 0,0 l/m 0,0 km/h (0 Bft) S 170 3,0 C 8,4 C 1,6 km/h (1 Bft)
20.04.2019 07:45 7,8 C 72 % 1030,3 hPa 0,0 l/m 1,0 km/h (0 Bft) S 170 3,1 C 7,8 C 3,2 km/h (1 Bft)
20.04.2019 07:40 7,2 C 73 % 1030,4 hPa 0,0 l/m 1,1 km/h (1 Bft) S 170 2,7 C 7,2 C 3,2 km/h (1 Bft)
20.04.2019 07:35 6,4 C 76 % 1030,4 hPa 0,0 l/m 1,4 km/h (1 Bft) S 170 2,5 C 6,4 C 6,4 km/h (2 Bft)
20.04.2019 07:30 5,8 C 79 % 1030,4 hPa 0,0 l/m 0,1 km/h (0 Bft) S 170 2,4 C 5,8 C 1,6 km/h (1 Bft)
20.04.2019 07:25 5,0 C 80 % 1030,5 hPa 0,0 l/m 1,6 km/h (1 Bft) S 170 1,8 C 5,0 C 6,4 km/h (2 Bft)
20.04.2019 07:20 4,4 C 81 % 1030,5 hPa 0,0 l/m 3,2 km/h (1 Bft) S-SO 168 1,4 C 4,4 C 6,4 km/h (2 Bft)
20.04.2019 07:15 3,8 C 82 % 1030,5 hPa 0,0 l/m 1,3 km/h (1 Bft) S-SO 168 1,0 C 3,8 C 6,4 km/h (2 Bft)
20.04.2019 07:10 3,2 C 85 % 1030,5 hPa 0,0 l/m 2,6 km/h (1 Bft) S 191 0,9 C 3,2 C 8,0 km/h (2 Bft)
20.04.2019 07:05 2,6 C 86 % 1030,6 hPa 0,0 l/m 0,9 km/h (0 Bft) S-SW 204 0,5 C 2,6 C 4,8 km/h (1 Bft)
20.04.2019 07:00 2,0 C 87 % 1030,5 hPa 0,0 l/m 1,9 km/h (1 Bft) S-SW 204 0,1 C 2,0 C 4,8 km/h (1 Bft)
20.04.2019 06:55 1,7 C 87 % 1030,4 hPa 0,0 l/m 1,7 km/h (1 Bft) S-SW 204 -0,2 C 1,7 C 4,8 km/h (1 Bft)
20.04.2019 06:50 1,4 C 87 % 1030,4 hPa 0,0 l/m 3,5 km/h (1 Bft) S-SW 204 -0,5 C 1,4 C 6,4 km/h (2 Bft)
20.04.2019 06:45 0,9 C 87 % 1030,3 hPa 0,0 l/m 3,7 km/h (1 Bft) S-SW 204 -1,0 C 0,9 C 6,4 km/h (2 Bft)
20.04.2019 06:40 0,7 C 86 % 1030,3 hPa 0,0 l/m 2,5 km/h (1 Bft) S-SW 204 -1,4 C 0,7 C 4,8 km/h (1 Bft)
20.04.2019 06:35 0,5 C 86 % 1030,3 hPa 0,0 l/m 0,7 km/h (0 Bft) S-SW 204 -1,6 C 0,5 C 4,8 km/h (1 Bft)
20.04.2019 06:30 0,5 C 86 % 1030,3 hPa 0,0 l/m 0,9 km/h (0 Bft) S-SW 204 -1,6 C 0,5 C 4,8 km/h (1 Bft)
20.04.2019 06:25 0,6 C 85 % 1030,3 hPa 0,0 l/m 0,1 km/h (0 Bft) S-SW 204 -1,6 C 0,6 C 1,6 km/h (1 Bft)
20.04.2019 06:20 0,6 C 86 % 1030,2 hPa 0,0 l/m 0,4 km/h (0 Bft) S-SW 204 -1,5 C 0,6 C 3,2 km/h (1 Bft)
20.04.2019 06:15 0,6 C 87 % 1030,3 hPa 0,0 l/m 2,5 km/h (1 Bft) S-SW 204 -1,3 C 0,6 C 8,0 km/h (2 Bft)
20.04.2019 06:10 0,2 C 86 % 1030,3 hPa 0,0 l/m 2,0 km/h (1 Bft) S-SW 204 -1,9 C 0,2 C 6,4 km/h (2 Bft)
20.04.2019 06:05 0,2 C 86 % 1030,3 hPa 0,0 l/m 1,0 km/h (0 Bft) S-SW 204 -1,9 C 0,2 C 4,8 km/h (1 Bft)
20.04.2019 06:00 0,3 C 87 % 1030,3 hPa 0,0 l/m 2,7 km/h (1 Bft) S-SW 204 -1,6 C 0,3 C 4,8 km/h (1 Bft)
20.04.2019 05:55 0,1 C 87 % 1030,3 hPa 0,0 l/m 2,9 km/h (1 Bft) S-SW 204 -1,8 C 0,1 C 4,8 km/h (1 Bft)
20.04.2019 05:50 -0,1 C 87 % 1030,3 hPa 0,0 l/m 1,4 km/h (1 Bft) S-SW 204 -2,0 C -0,1 C 4,8 km/h (1 Bft)
20.04.2019 05:45 -0,1 C 86 % 1030,3 hPa 0,0 l/m 0,0 km/h (0 Bft) S-SW 204 -2,2 C -0,1 C 0,0 km/h (0 Bft)
20.04.2019 05:40 0,0 C 86 % 1030,3 hPa 0,0 l/m 1,4 km/h (1 Bft) S-SW 204 -2,1 C 0,0 C 4,8 km/h (1 Bft)
20.04.2019 05:35 0,1 C 87 % 1030,2 hPa 0,0 l/m 2,9 km/h (1 Bft) S-SW 204 -1,8 C 0,1 C 4,8 km/h (1 Bft)
20.04.2019 05:30 0,1 C 87 % 1030,2 hPa 0,0 l/m 0,3 km/h (0 Bft) S-SW 204 -1,8 C 0,1 C 3,2 km/h (1 Bft)
20.04.2019 05:25 0,0 C 87 % 1030,3 hPa 0,0 l/m 0,0 km/h (0 Bft) S-SW 204 -1,9 C 0,0 C 0,0 km/h (0 Bft)
20.04.2019 05:20 0,0 C 86 % 1030,3 hPa 0,0 l/m 0,0 km/h (0 Bft) S-SW 204 -2,1 C 0,0 C 0,0 km/h (0 Bft)
20.04.2019 05:15 0,2 C 86 % 1030,3 hPa 0,0 l/m 0,0 km/h (0 Bft) S-SW 204 -1,9 C 0,2 C 0,0 km/h (0 Bft)
20.04.2019 05:10 0,3 C 86 % 1030,3 hPa 0,0 l/m 0,0 km/h (0 Bft) S-SW 204 -1,8 C 0,3 C 0,0 km/h (0 Bft)
20.04.2019 05:05 0,3 C 87 % 1030,3 hPa 0,0 l/m 0,0 km/h (0 Bft) S-SW 204 -1,6 C 0,3 C 0,0 km/h (0 Bft)
20.04.2019 05:00 0,2 C 86 % 1030,4 hPa 0,0 l/m 0,0 km/h (0 Bft) S-SW 204 -1,9 C 0,2 C 0,0 km/h (0 Bft)
20.04.2019 04:55 0,3 C 86 % 1030,3 hPa 0,0 l/m 0,0 km/h (0 Bft) S-SW 204 -1,8 C 0,3 C 0,0 km/h (0 Bft)
20.04.2019 04:50 0,3 C 86 % 1030,4 hPa 0,0 l/m 0,0 km/h (0 Bft) S-SW 204 -1,8 C 0,3 C 0,0 km/h (0 Bft)
20.04.2019 04:45 0,4 C 86 % 1030,4 hPa 0,0 l/m 0,1 km/h (0 Bft) S-SW 204 -1,7 C 0,4 C 1,6 km/h (1 Bft)
20.04.2019 04:40 0,5 C 86 % 1030,3 hPa 0,0 l/m 0,4 km/h (0 Bft) S-SW 204 -1,6 C 0,5 C 1,6 km/h (1 Bft)
20.04.2019 04:35 0,5 C 86 % 1030,4 hPa 0,0 l/m 0,1 km/h (0 Bft) S-SW 204 -1,6 C 0,5 C 1,6 km/h (1 Bft)
20.04.2019 04:30 0,4 C 86 % 1030,5 hPa 0,0 l/m 0,2 km/h (0 Bft) S-SW 204 -1,7 C 0,4 C 3,2 km/h (1 Bft)
20.04.2019 04:25 0,5 C 86 % 1030,4 hPa 0,0 l/m 0,5 km/h (0 Bft) S-SW 204 -1,6 C 0,5 C 3,2 km/h (1 Bft)
20.04.2019 04:20 0,6 C 86 % 1030,5 hPa 0,0 l/m 0,0 km/h (0 Bft) S-SW 204 -1,5 C 0,6 C 0,0 km/h (0 Bft)
20.04.2019 04:15 0,6 C 87 % 1030,4 hPa 0,0 l/m 0,0 km/h (0 Bft) S-SW 204 -1,3 C 0,6 C 0,0 km/h (0 Bft)
20.04.2019 04:10 0,5 C 86 % 1030,4 hPa 0,0 l/m 0,0 km/h (0 Bft) S-SW 204 -1,6 C 0,5 C 0,0 km/h (0 Bft)
20.04.2019 04:05 0,4 C 86 % 1030,5 hPa 0,0 l/m 0,0 km/h (0 Bft) S-SW 204 -1,7 C 0,4 C 0,0 km/h (0 Bft)
20.04.2019 04:00 0,4 C 86 % 1030,4 hPa 0,0 l/m 0,0 km/h (0 Bft) S-SW 204 -1,7 C 0,4 C 0,0 km/h (0 Bft)
20.04.2019 03:55 0,4 C 86 % 1030,4 hPa 0,0 l/m 0,0 km/h (0 Bft) S-SW 204 -1,7 C 0,4 C 0,0 km/h (0 Bft)
20.04.2019 03:50 0,6 C 86 % 1030,4 hPa 0,0 l/m 0,2 km/h (0 Bft) S-SW 204 -1,5 C 0,6 C 3,2 km/h (1 Bft)
20.04.2019 03:45 0,6 C 86 % 1030,5 hPa 0,0 l/m 0,3 km/h (0 Bft) S-SW 204 -1,5 C 0,6 C 1,6 km/h (1 Bft)
20.04.2019 03:40 0,5 C 86 % 1030,5 hPa 0,0 l/m 0,2 km/h (0 Bft) S-SW 204 -1,6 C 0,5 C 3,2 km/h (1 Bft)
20.04.2019 03:35 0,5 C 86 % 1030,4 hPa 0,0 l/m 0,0 km/h (0 Bft) S-SW 204 -1,6 C 0,5 C 0,0 km/h (0 Bft)
20.04.2019 03:30 0,6 C 85 % 1030,4 hPa 0,0 l/m 0,4 km/h (0 Bft) S-SW 204 -1,6 C 0,6 C 1,6 km/h (1 Bft)
20.04.2019 03:25 0,6 C 85 % 1030,4 hPa 0,0 l/m 0,1 km/h (0 Bft) S-SW 204 -1,6 C 0,6 C 1,6 km/h (1 Bft)
20.04.2019 03:20 0,7 C 85 % 1030,5 hPa 0,0 l/m 0,2 km/h (0 Bft) S-SW 204 -1,5 C 0,7 C 3,2 km/h (1 Bft)
20.04.2019 03:15 0,8 C 86 % 1030,5 hPa 0,0 l/m 0,6 km/h (0 Bft) S-SW 204 -1,3 C 0,8 C 3,2 km/h (1 Bft)
20.04.2019 03:10 0,7 C 85 % 1030,5 hPa 0,0 l/m 0,5 km/h (0 Bft) S-SW 204 -1,5 C 0,7 C 3,2 km/h (1 Bft)
20.04.2019 03:05 0,6 C 85 % 1030,5 hPa 0,0 l/m 0,1 km/h (0 Bft) S-SW 204 -1,6 C 0,6 C 1,6 km/h (1 Bft)
20.04.2019 03:00 0,7 C 84 % 1030,5 hPa 0,0 l/m 0,4 km/h (0 Bft) S-SW 204 -1,7 C 0,7 C 3,2 km/h (1 Bft)
_ Min-Zeit 05:45 15:30 18:10 - 23:40 - - 05:45 05:45 23:40
Minimum _ -0,1 C 26 % 1029,6 hPa - 0,0 km/h (0 Bft) - - -2,2 C -0,1 C 0,0 km/h (0 Bft)
_ Max-Zeit 11:00 04:15 12:00 12:00 12:15 - - 08:36 11:00 12:50
Maximum _ 18,9 C 87 % 1031,4 hPa 0,0 l/m 16,7 km/h
SO (3 Bft)
- - 5,1 C 18,9 C 33,8 km/h
O-NO (5 Bft)
Durchschnitt _ 10,7 C 55 % 1030,5 hPa #0,0 l/m 6,1 km/h (2 Bft) S-SW - 0,6 C 9,8 C 12,2 km/h (2 Bft)
Normalwerte entsprechend der Tabelle des DWD von 1961-1990 fr den Standort Annaberg-Buchholz, 650m ASL